sensor_id;sensor_type;location;lat;lon;timestamp;pressure;altitude;pressure_sealevel;temperature;humidity
39075;BME280;24826;52.070;20.970;2023-03-13T00:02:31;61396.66;;;-147.04;73.98
39075;BME280;24826;52.070;20.970;2023-03-13T00:05:16;61436.44;;;-147.04;74.18
39075;BME280;24826;52.070;20.970;2023-03-13T00:08:00;61436.44;;;-147.04;74.70
39075;BME280;24826;52.070;20.970;2023-03-13T00:10:45;61440.41;;;-147.04;74.85
39075;BME280;24826;52.070;20.970;2023-03-13T00:13:29;61402.63;;;-147.04;75.24
39075;BME280;24826;52.070;20.970;2023-03-13T00:16:15;61412.56;;;-147.04;75.10
39075;BME280;24826;52.070;20.970;2023-03-13T00:18:59;61418.53;;;-147.04;74.58
39075;BME280;24826;52.070;20.970;2023-03-13T00:21:43;61404.63;;;-147.04;74.24
39075;BME280;24826;52.070;20.970;2023-03-13T00:24:27;61611.44;;;-147.04;73.42
39075;BME280;24826;52.070;20.970;2023-03-13T00:27:12;61400.66;;;-147.04;73.37
39075;BME280;24826;52.070;20.970;2023-03-13T00:29:56;61384.75;;;-147.04;73.59
39075;BME280;24826;52.070;20.970;2023-03-13T00:32:42;61388.72;;;-147.04;73.68
39075;BME280;24826;52.070;20.970;2023-03-13T00:35:27;61392.69;;;-147.04;73.35
39075;BME280;24826;52.070;20.970;2023-03-13T00:38:12;61426.50;;;-147.04;72.66
39075;BME280;24826;52.070;20.970;2023-03-13T00:41:05;61414.56;;;-147.04;73.30
39075;BME280;24826;52.070;20.970;2023-03-13T00:43:50;61394.69;;;-147.04;73.26
39075;BME280;24826;52.070;20.970;2023-03-13T00:46:35;61398.66;;;-147.04;72.90
39075;BME280;24826;52.070;20.970;2023-03-13T00:49:19;61370.81;;;-147.04;73.26
39075;BME280;24826;52.070;20.970;2023-03-13T00:52:04;61400.66;;;-147.04;71.64
39075;BME280;24826;52.070;20.970;2023-03-13T00:54:48;61416.56;;;-147.04;72.41
39075;BME280;24826;52.070;20.970;2023-03-13T00:57:32;61400.66;;;-147.04;72.49
39075;BME280;24826;52.070;20.970;2023-03-13T01:00:20;61372.81;;;-147.04;72.06
39075;BME280;24826;52.070;20.970;2023-03-13T01:03:05;61376.78;;;-147.04;71.92
39075;BME280;24826;52.070;20.970;2023-03-13T01:06:00;61420.53;;;-147.04;72.23
39075;BME280;24826;52.070;20.970;2023-03-13T01:08:45;61394.69;;;-147.04;70.68
39075;BME280;24826;52.070;20.970;2023-03-13T01:11:33;61388.72;;;-147.04;70.92
39075;BME280;24826;52.070;20.970;2023-03-13T01:14:18;61394.69;;;-147.04;70.46
39075;BME280;24826;52.070;20.970;2023-03-13T01:17:03;61378.78;;;-147.04;71.21
39075;BME280;24826;52.070;20.970;2023-03-13T01:19:48;61368.84;;;-147.04;71.28
39075;BME280;24826;52.070;20.970;2023-03-13T01:22:32;61376.78;;;-147.04;70.95
39075;BME280;24826;52.070;20.970;2023-03-13T01:25:17;61390.72;;;-147.04;70.12
39075;BME280;24826;52.070;20.970;2023-03-13T01:28:01;61408.59;;;-147.04;70.15
39075;BME280;24826;52.070;20.970;2023-03-13T01:30:46;61380.75;;;-147.04;69.89
39075;BME280;24826;52.070;20.970;2023-03-13T01:33:30;61412.56;;;-147.04;70.42
39075;BME280;24826;52.070;20.970;2023-03-13T01:36:15;61400.66;;;-147.04;69.63
39075;BME280;24826;52.070;20.970;2023-03-13T01:39:00;61384.75;;;-147.04;68.80
39075;BME280;24826;52.070;20.970;2023-03-13T01:41:44;61348.94;;;-147.04;67.93
39075;BME280;24826;52.070;20.970;2023-03-13T01:44:29;61380.75;;;-147.04;68.13
39075;BME280;24826;52.070;20.970;2023-03-13T01:47:13;61398.66;;;-147.04;68.91
39075;BME280;24826;52.070;20.970;2023-03-13T01:49:58;61390.72;;;-147.04;69.65
39075;BME280;24826;52.070;20.970;2023-03-13T01:52:42;61384.75;;;-147.04;70.69
39075;BME280;24826;52.070;20.970;2023-03-13T01:55:27;61422.53;;;-147.04;72.37
39075;BME280;24826;52.070;20.970;2023-03-13T01:58:11;61432.47;;;-147.04;72.44
39075;BME280;24826;52.070;20.970;2023-03-13T02:00:57;61390.72;;;-147.04;72.64
39075;BME280;24826;52.070;20.970;2023-03-13T02:03:42;61384.75;;;-147.04;72.67
39075;BME280;24826;52.070;20.970;2023-03-13T02:06:28;61382.75;;;-147.04;72.98
39075;BME280;24826;52.070;20.970;2023-03-13T02:09:18;61412.56;;;-147.04;72.68
39075;BME280;24826;52.070;20.970;2023-03-13T02:12:08;61392.69;;;-147.04;72.89
39075;BME280;24826;52.070;20.970;2023-03-13T02:14:53;61400.66;;;-147.04;72.87
39075;BME280;24826;52.070;20.970;2023-03-13T02:17:41;61374.78;;;-147.04;72.17
39075;BME280;24826;52.070;20.970;2023-03-13T02:20:26;61396.66;;;-147.04;73.06
39075;BME280;24826;52.070;20.970;2023-03-13T02:23:23;61380.75;;;-147.04;72.56
39075;BME280;24826;52.070;20.970;2023-03-13T02:26:08;61392.69;;;-147.04;72.32
39075;BME280;24826;52.070;20.970;2023-03-13T02:28:53;61400.66;;;-147.04;72.78
39075;BME280;24826;52.070;20.970;2023-03-13T02:31:37;61410.59;;;-147.04;73.08
39075;BME280;24826;52.070;20.970;2023-03-13T02:34:25;61384.75;;;-147.04;72.75
39075;BME280;24826;52.070;20.970;2023-03-13T02:37:12;61470.25;;;-147.04;73.10
39075;BME280;24826;52.070;20.970;2023-03-13T02:40:01;61418.53;;;-147.04;72.75
39075;BME280;24826;52.070;20.970;2023-03-13T02:42:47;61337.00;;;-147.04;72.62
39075;BME280;24826;52.070;20.970;2023-03-13T02:45:33;61394.69;;;-147.04;72.73
39075;BME280;24826;52.070;20.970;2023-03-13T02:48:30;61402.63;;;-147.04;73.13
39075;BME280;24826;52.070;20.970;2023-03-13T02:54:09;61426.50;;;-147.04;73.16
39075;BME280;24826;52.070;20.970;2023-03-13T02:57:00;61400.66;;;-147.04;73.92
39075;BME280;24826;52.070;20.970;2023-03-13T02:59:45;61396.66;;;-147.04;73.74
39075;BME280;24826;52.070;20.970;2023-03-13T03:02:29;61406.63;;;-147.04;73.33
39075;BME280;24826;52.070;20.970;2023-03-13T03:05:14;61376.78;;;-147.04;73.00
39075;BME280;24826;52.070;20.970;2023-03-13T03:07:58;61414.56;;;-147.04;72.90
39075;BME280;24826;52.070;20.970;2023-03-13T03:10:43;61400.66;;;-147.04;73.88
39075;BME280;24826;52.070;20.970;2023-03-13T03:13:27;61390.72;;;-147.04;74.78
39075;BME280;24826;52.070;20.970;2023-03-13T03:16:13;61400.66;;;-147.04;74.13
39075;BME280;24826;52.070;20.970;2023-03-13T03:19:04;61386.72;;;-147.04;74.97
39075;BME280;24826;52.070;20.970;2023-03-13T03:21:49;61414.56;;;-147.04;74.71
39075;BME280;24826;52.070;20.970;2023-03-13T03:24:34;61376.78;;;-147.04;74.96
39075;BME280;24826;52.070;20.970;2023-03-13T03:27:18;61408.59;;;-147.04;74.99
39075;BME280;24826;52.070;20.970;2023-03-13T03:30:03;61412.56;;;-147.04;75.52
39075;BME280;24826;52.070;20.970;2023-03-13T03:32:48;61396.66;;;-147.04;74.48
39075;BME280;24826;52.070;20.970;2023-03-13T03:35:32;61394.69;;;-147.04;75.24
39075;BME280;24826;52.070;20.970;2023-03-13T03:38:21;61438.44;;;-147.04;75.97
39075;BME280;24826;52.070;20.970;2023-03-13T03:41:06;61396.66;;;-147.04;77.14
39075;BME280;24826;52.070;20.970;2023-03-13T03:43:51;61424.50;;;-147.04;77.25
39075;BME280;24826;52.070;20.970;2023-03-13T03:46:36;61376.78;;;-147.04;78.27
39075;BME280;24826;52.070;20.970;2023-03-13T03:49:20;61416.56;;;-147.04;78.89
39075;BME280;24826;52.070;20.970;2023-03-13T03:52:05;61372.81;;;-147.04;79.87
39075;BME280;24826;52.070;20.970;2023-03-13T03:54:50;61388.72;;;-147.04;80.07
39075;BME280;24826;52.070;20.970;2023-03-13T03:57:34;61376.78;;;-147.04;80.63
39075;BME280;24826;52.070;20.970;2023-03-13T04:00:18;61404.63;;;-147.04;80.90
39075;BME280;24826;52.070;20.970;2023-03-13T04:03:03;61458.31;;;-147.04;81.97
39075;BME280;24826;52.070;20.970;2023-03-13T04:05:47;61394.69;;;-147.04;82.09
39075;BME280;24826;52.070;20.970;2023-03-13T04:08:32;61420.53;;;-147.04;83.14
39075;BME280;24826;52.070;20.970;2023-03-13T04:11:16;61406.63;;;-147.04;83.27
39075;BME280;24826;52.070;20.970;2023-03-13T04:14:01;61416.56;;;-147.04;83.43
39075;BME280;24826;52.070;20.970;2023-03-13T04:16:45;61384.75;;;-147.04;84.28
39075;BME280;24826;52.070;20.970;2023-03-13T04:19:29;61414.56;;;-147.04;84.79
39075;BME280;24826;52.070;20.970;2023-03-13T04:22:13;61424.50;;;-147.04;85.28
39075;BME280;24826;52.070;20.970;2023-03-13T04:24:59;61394.69;;;-147.04;86.06
39075;BME280;24826;52.070;20.970;2023-03-13T04:27:43;61392.69;;;-147.04;87.54
39075;BME280;24826;52.070;20.970;2023-03-13T04:30:28;61408.59;;;-147.04;89.45
39075;BME280;24826;52.070;20.970;2023-03-13T04:33:12;61396.66;;;-147.04;91.42
39075;BME280;24826;52.070;20.970;2023-03-13T04:35:57;61400.66;;;-147.04;91.92
39075;BME280;24826;52.070;20.970;2023-03-13T04:38:41;61402.63;;;-147.04;93.28
39075;BME280;24826;52.070;20.970;2023-03-13T04:41:25;61384.75;;;-147.04;94.13
39075;BME280;24826;52.070;20.970;2023-03-13T04:44:10;61380.75;;;-147.04;94.38
39075;BME280;24826;52.070;20.970;2023-03-13T04:46:55;61396.66;;;-147.04;95.32
39075;BME280;24826;52.070;20.970;2023-03-13T04:49:39;61392.69;;;-147.04;96.12
39075;BME280;24826;52.070;20.970;2023-03-13T04:52:23;61420.53;;;-147.04;96.37
39075;BME280;24826;52.070;20.970;2023-03-13T04:55:08;61388.72;;;-147.04;96.87
39075;BME280;24826;52.070;20.970;2023-03-13T04:57:53;61396.66;;;-147.04;97.40
39075;BME280;24826;52.070;20.970;2023-03-13T05:00:39;61392.69;;;-147.04;98.18
39075;BME280;24826;52.070;20.970;2023-03-13T05:03:24;61392.69;;;-147.04;99.41
39075;BME280;24826;52.070;20.970;2023-03-13T05:06:08;61400.66;;;-147.04;99.65
39075;BME280;24826;52.070;20.970;2023-03-13T05:08:53;61412.56;;;-147.04;100.00
39075;BME280;24826;52.070;20.970;2023-03-13T05:11:38;61370.81;;;-147.04;100.00
39075;BME280;24826;52.070;20.970;2023-03-13T05:14:23;61396.66;;;-147.04;100.00
39075;BME280;24826;52.070;20.970;2023-03-13T05:17:07;61364.84;;;-147.04;100.00
39075;BME280;24826;52.070;20.970;2023-03-13T05:19:53;61408.59;;;-147.04;100.00
39075;BME280;24826;52.070;20.970;2023-03-13T05:22:38;61420.53;;;-147.04;100.00
39075;BME280;24826;52.070;20.970;2023-03-13T05:25:22;61398.66;;;-147.04;100.00
39075;BME280;24826;52.070;20.970;2023-03-13T05:28:06;61404.63;;;-147.04;100.00
39075;BME280;24826;52.070;20.970;2023-03-13T05:30:51;61404.63;;;-147.04;100.00
39075;BME280;24826;52.070;20.970;2023-03-13T05:33:35;61372.81;;;-147.04;100.00
39075;BME280;24826;52.070;20.970;2023-03-13T05:36:20;61380.75;;;-147.04;100.00
39075;BME280;24826;52.070;20.970;2023-03-13T05:39:05;61384.75;;;-147.04;100.00
39075;BME280;24826;52.070;20.970;2023-03-13T05:41:49;61416.56;;;-147.04;100.00
39075;BME280;24826;52.070;20.970;2023-03-13T05:44:34;61396.66;;;-147.04;100.00
39075;BME280;24826;52.070;20.970;2023-03-13T05:47:18;61388.72;;;-147.04;100.00
39075;BME280;24826;52.070;20.970;2023-03-13T05:50:04;61424.50;;;-147.04;100.00
39075;BME280;24826;52.070;20.970;2023-03-13T05:52:49;61416.56;;;-147.04;100.00
39075;BME280;24826;52.070;20.970;2023-03-13T05:55:33;61404.63;;;-147.04;100.00
39075;BME280;24826;52.070;20.970;2023-03-13T05:58:17;61392.69;;;-147.04;100.00
39075;BME280;24826;52.070;20.970;2023-03-13T06:01:09;61412.56;;;-147.04;100.00
39075;BME280;24826;52.070;20.970;2023-03-13T06:03:54;61372.81;;;-147.04;100.00
39075;BME280;24826;52.070;20.970;2023-03-13T06:06:38;61420.53;;;-147.04;100.00
39075;BME280;24826;52.070;20.970;2023-03-13T06:09:23;61454.34;;;-147.04;100.00
39075;BME280;24826;52.070;20.970;2023-03-13T06:12:08;61416.56;;;-147.04;100.00
39075;BME280;24826;52.070;20.970;2023-03-13T06:14:53;61444.41;;;-147.04;100.00
39075;BME280;24826;52.070;20.970;2023-03-13T06:17:38;61442.41;;;-147.04;100.00
39075;BME280;24826;52.070;20.970;2023-03-13T06:20:22;61394.69;;;-147.04;100.00
39075;BME280;24826;52.070;20.970;2023-03-13T06:23:07;61424.50;;;-147.04;100.00
39075;BME280;24826;52.070;20.970;2023-03-13T06:25:51;61418.53;;;-147.04;100.00
39075;BME280;24826;52.070;20.970;2023-03-13T06:28:35;61436.44;;;-147.04;100.00
39075;BME280;24826;52.070;20.970;2023-03-13T06:31:20;61392.69;;;-147.04;100.00
39075;BME280;24826;52.070;20.970;2023-03-13T06:34:04;61396.66;;;-147.04;100.00
39075;BME280;24826;52.070;20.970;2023-03-13T06:36:49;61374.78;;;-147.04;100.00
39075;BME280;24826;52.070;20.970;2023-03-13T06:39:33;61428.47;;;-147.04;100.00
39075;BME280;24826;52.070;20.970;2023-03-13T06:42:17;61420.53;;;-147.04;100.00
39075;BME280;24826;52.070;20.970;2023-03-13T06:45:02;61472.22;;;-147.04;100.00
39075;BME280;24826;52.070;20.970;2023-03-13T06:47:46;61472.22;;;-147.04;100.00
39075;BME280;24826;52.070;20.970;2023-03-13T06:50:31;61462.28;;;-147.04;100.00
39075;BME280;24826;52.070;20.970;2023-03-13T06:53:18;61432.47;;;-147.04;100.00
39075;BME280;24826;52.070;20.970;2023-03-13T06:56:02;61394.69;;;-147.04;100.00
39075;BME280;24826;52.070;20.970;2023-03-13T06:58:48;61400.66;;;-147.04;100.00
39075;BME280;24826;52.070;20.970;2023-03-13T07:01:32;61396.66;;;-147.04;100.00
39075;BME280;24826;52.070;20.970;2023-03-13T07:04:17;61402.63;;;-147.04;100.00
39075;BME280;24826;52.070;20.970;2023-03-13T07:07:03;61412.56;;;-147.04;100.00
39075;BME280;24826;52.070;20.970;2023-03-13T07:09:47;61396.66;;;-147.04;100.00
39075;BME280;24826;52.070;20.970;2023-03-13T07:12:33;61420.53;;;-147.04;100.00
39075;BME280;24826;52.070;20.970;2023-03-13T07:15:18;61468.25;;;-147.04;100.00
39075;BME280;24826;52.070;20.970;2023-03-13T07:18:02;61428.47;;;-147.04;100.00
39075;BME280;24826;52.070;20.970;2023-03-13T07:20:58;61400.66;;;-147.04;100.00
39075;BME280;24826;52.070;20.970;2023-03-13T07:23:42;61446.38;;;-147.04;100.00
39075;BME280;24826;52.070;20.970;2023-03-13T07:26:27;61430.47;;;-147.04;100.00
39075;BME280;24826;52.070;20.970;2023-03-13T07:29:11;61452.34;;;-147.04;100.00
39075;BME280;24826;52.070;20.970;2023-03-13T07:31:56;61456.31;;;-147.04;100.00
39075;BME280;24826;52.070;20.970;2023-03-13T07:34:40;61456.31;;;-147.04;100.00
39075;BME280;24826;52.070;20.970;2023-03-13T07:37:27;61424.50;;;-147.04;100.00
39075;BME280;24826;52.070;20.970;2023-03-13T07:40:12;61468.25;;;-147.04;100.00
39075;BME280;24826;52.070;20.970;2023-03-13T07:42:56;61460.31;;;-147.04;100.00
39075;BME280;24826;52.070;20.970;2023-03-13T07:48:38;61480.19;;;-147.04;100.00
39075;BME280;24826;52.070;20.970;2023-03-13T07:51:24;61426.50;;;-147.04;100.00
39075;BME280;24826;52.070;20.970;2023-03-13T07:54:09;61476.22;;;-147.04;100.00
39075;BME280;24826;52.070;20.970;2023-03-13T07:56:54;61436.44;;;-147.04;100.00
39075;BME280;24826;52.070;20.970;2023-03-13T07:59:38;61448.38;;;-147.04;100.00
39075;BME280;24826;52.070;20.970;2023-03-13T08:02:22;61482.19;;;-147.04;100.00
39075;BME280;24826;52.070;20.970;2023-03-13T08:05:07;61440.41;;;-147.04;100.00
39075;BME280;24826;52.070;20.970;2023-03-13T08:07:52;61496.09;;;-147.04;100.00
39075;BME280;24826;52.070;20.970;2023-03-13T08:10:37;61452.34;;;-147.04;100.00
39075;BME280;24826;52.070;20.970;2023-03-13T08:13:21;61470.25;;;-147.04;100.00
39075;BME280;24826;52.070;20.970;2023-03-13T08:16:32;61454.34;;;-147.04;100.00
39075;BME280;24826;52.070;20.970;2023-03-13T08:19:17;61496.09;;;-147.04;100.00
39075;BME280;24826;52.070;20.970;2023-03-13T08:22:02;61460.31;;;-147.04;100.00
39075;BME280;24826;52.070;20.970;2023-03-13T08:24:46;61448.38;;;-147.04;100.00
39075;BME280;24826;52.070;20.970;2023-03-13T08:27:31;61448.38;;;-147.04;100.00
39075;BME280;24826;52.070;20.970;2023-03-13T08:30:15;61494.09;;;-147.04;100.00
39075;BME280;24826;52.070;20.970;2023-03-13T08:33:00;61472.22;;;-147.04;100.00
39075;BME280;24826;52.070;20.970;2023-03-13T08:35:44;61448.38;;;-147.04;100.00
39075;BME280;24826;52.070;20.970;2023-03-13T08:38:29;61476.22;;;-147.04;100.00
39075;BME280;24826;52.070;20.970;2023-03-13T08:41:16;61476.22;;;-147.04;100.00
39075;BME280;24826;52.070;20.970;2023-03-13T08:44:03;61502.06;;;-147.04;100.00
39075;BME280;24826;52.070;20.970;2023-03-13T08:46:47;61515.97;;;-147.04;100.00
39075;BME280;24826;52.070;20.970;2023-03-13T08:49:32;61472.22;;;-147.04;100.00
39075;BME280;24826;52.070;20.970;2023-03-13T08:52:17;61480.19;;;-147.04;100.00
39075;BME280;24826;52.070;20.970;2023-03-13T08:55:01;61506.03;;;-147.04;100.00
39075;BME280;24826;52.070;20.970;2023-03-13T08:57:45;61498.09;;;-147.04;100.00
39075;BME280;24826;52.070;20.970;2023-03-13T09:00:30;61587.56;;;-147.04;100.00
39075;BME280;24826;52.070;20.970;2023-03-13T09:03:14;61482.19;;;-147.04;100.00
39075;BME280;24826;52.070;20.970;2023-03-13T09:05:59;61494.09;;;-147.04;100.00
39075;BME280;24826;52.070;20.970;2023-03-13T09:08:44;61514.00;;;-147.04;100.00
39075;BME280;24826;52.070;20.970;2023-03-13T09:11:29;61476.22;;;-147.04;100.00
39075;BME280;24826;52.070;20.970;2023-03-13T09:14:13;61492.13;;;-147.04;100.00
39075;BME280;24826;52.070;20.970;2023-03-13T09:16:57;61527.91;;;-147.04;100.00
39075;BME280;24826;52.070;20.970;2023-03-13T09:19:42;61504.03;;;-147.04;100.00
39075;BME280;24826;52.070;20.970;2023-03-13T09:22:27;61504.03;;;-147.04;100.00
39075;BME280;24826;52.070;20.970;2023-03-13T09:25:12;61521.94;;;-147.04;100.00
39075;BME280;24826;52.070;20.970;2023-03-13T09:27:56;61484.16;;;-147.04;100.00
39075;BME280;24826;52.070;20.970;2023-03-13T09:30:40;61567.69;;;-147.04;100.00
39075;BME280;24826;52.070;20.970;2023-03-13T09:33:25;61460.31;;;-147.04;100.00
39075;BME280;24826;52.070;20.970;2023-03-13T09:36:10;61472.22;;;-147.04;100.00
39075;BME280;24826;52.070;20.970;2023-03-13T09:38:57;61512.00;;;-147.04;100.00
39075;BME280;24826;52.070;20.970;2023-03-13T09:44:38;61476.22;;;-147.04;100.00
39075;BME280;24826;52.070;20.970;2023-03-13T09:47:42;61488.13;;;-147.04;100.00
39075;BME280;24826;52.070;20.970;2023-03-13T09:50:35;61488.13;;;-147.04;100.00
39075;BME280;24826;52.070;20.970;2023-03-13T09:53:33;61498.09;;;-147.04;100.00
39075;BME280;24826;52.070;20.970;2023-03-13T09:56:29;61504.03;;;-147.04;100.00
39075;BME280;24826;52.070;20.970;2023-03-13T09:59:19;61484.16;;;-147.04;100.00
39075;BME280;24826;52.070;20.970;2023-03-13T10:02:18;61458.31;;;-147.04;100.00
39075;BME280;24826;52.070;20.970;2023-03-13T10:05:23;61464.28;;;-147.04;100.00
39075;BME280;24826;52.070;20.970;2023-03-13T10:08:19;61496.09;;;-147.04;100.00
39075;BME280;24826;52.070;20.970;2023-03-13T10:11:32;61484.16;;;-147.04;100.00
39075;BME280;24826;52.070;20.970;2023-03-13T10:20:22;61444.41;;;-147.04;100.00
39075;BME280;24826;52.070;20.970;2023-03-13T10:23:11;61476.22;;;-147.04;100.00
39075;BME280;24826;52.070;20.970;2023-03-13T10:25:57;61482.19;;;-147.04;100.00
39075;BME280;24826;52.070;20.970;2023-03-13T10:28:42;61476.22;;;-147.04;100.00
39075;BME280;24826;52.070;20.970;2023-03-13T10:31:31;61510.00;;;-147.04;100.00
39075;BME280;24826;52.070;20.970;2023-03-13T10:34:16;61472.22;;;-147.04;100.00
39075;BME280;24826;52.070;20.970;2023-03-13T10:37:00;61438.44;;;-147.04;100.00
39075;BME280;24826;52.070;20.970;2023-03-13T10:39:44;61478.19;;;-147.04;100.00
39075;BME280;24826;52.070;20.970;2023-03-13T10:42:37;61476.22;;;-147.04;100.00
39075;BME280;24826;52.070;20.970;2023-03-13T10:45:26;61490.13;;;-147.04;100.00
39075;BME280;24826;52.070;20.970;2023-03-13T10:51:20;61500.06;;;-147.04;100.00
39075;BME280;24826;52.070;20.970;2023-03-13T10:54:32;61496.09;;;-147.04;100.00
39075;BME280;24826;52.070;20.970;2023-03-13T11:00:29;61472.22;;;-147.04;100.00
39075;BME280;24826;52.070;20.970;2023-03-13T11:03:18;61496.09;;;-147.04;100.00
39075;BME280;24826;52.070;20.970;2023-03-13T11:06:06;61496.09;;;-147.04;100.00
39075;BME280;24826;52.070;20.970;2023-03-13T11:09:04;61514.00;;;-147.04;100.00
39075;BME280;24826;52.070;20.970;2023-03-13T11:11:57;61500.06;;;-147.04;100.00
39075;BME280;24826;52.070;20.970;2023-03-13T11:14:44;61480.19;;;-147.04;100.00
39075;BME280;24826;52.070;20.970;2023-03-13T11:17:39;61496.09;;;-147.04;100.00
39075;BME280;24826;52.070;20.970;2023-03-13T11:20:26;61514.00;;;-147.04;100.00
39075;BME280;24826;52.070;20.970;2023-03-13T11:23:34;61514.00;;;-147.04;100.00
39075;BME280;24826;52.070;20.970;2023-03-13T11:26:34;61547.78;;;-147.04;100.00
39075;BME280;24826;52.070;20.970;2023-03-13T11:29:28;61529.91;;;-147.04;100.00
39075;BME280;24826;52.070;20.970;2023-03-13T11:32:50;61563.69;;;-147.04;100.00
39075;BME280;24826;52.070;20.970;2023-03-13T11:35:47;61519.94;;;-147.04;100.00
39075;BME280;24826;52.070;20.970;2023-03-13T11:38:39;61515.97;;;-147.04;100.00
39075;BME280;24826;52.070;20.970;2023-03-13T11:41:49;61523.94;;;-147.04;100.00
39075;BME280;24826;52.070;20.970;2023-03-13T11:47:58;61504.03;;;-147.04;100.00
39075;BME280;24826;52.070;20.970;2023-03-13T11:57:30;61535.88;;;-147.04;100.00
39075;BME280;24826;52.070;20.970;2023-03-13T12:05:58;61519.94;;;-147.04;100.00
39075;BME280;24826;52.070;20.970;2023-03-13T12:08:51;61490.13;;;-147.04;100.00
39075;BME280;24826;52.070;20.970;2023-03-13T12:14:56;61531.88;;;-147.04;100.00
39075;BME280;24826;52.070;20.970;2023-03-13T12:17:47;61515.97;;;-147.04;100.00
39075;BME280;24826;52.070;20.970;2023-03-13T12:20:40;61496.09;;;-147.04;100.00
39075;BME280;24826;52.070;20.970;2023-03-13T12:26:25;61494.09;;;-147.04;100.00
39075;BME280;24826;52.070;20.970;2023-03-13T12:32:28;61490.13;;;-147.04;100.00
39075;BME280;24826;52.070;20.970;2023-03-13T12:35:26;61484.16;;;-147.04;100.00
39075;BME280;24826;52.070;20.970;2023-03-13T12:38:18;61492.13;;;-147.04;100.00
39075;BME280;24826;52.070;20.970;2023-03-13T12:41:16;61517.97;;;-147.04;100.00
39075;BME280;24826;52.070;20.970;2023-03-13T12:44:01;61460.31;;;-147.04;100.00
39075;BME280;24826;52.070;20.970;2023-03-13T12:46:53;61488.13;;;-147.04;100.00
39075;BME280;24826;52.070;20.970;2023-03-13T12:53:35;61480.19;;;-147.04;100.00
39075;BME280;24826;52.070;20.970;2023-03-13T12:59:05;61480.19;;;-147.04;100.00
39075;BME280;24826;52.070;20.970;2023-03-13T13:01:53;61512.00;;;-147.04;100.00
39075;BME280;24826;52.070;20.970;2023-03-13T13:04:47;61478.19;;;-147.04;100.00
39075;BME280;24826;52.070;20.970;2023-03-13T13:07:34;61488.13;;;-147.04;100.00
39075;BME280;24826;52.070;20.970;2023-03-13T13:10:22;61484.16;;;-147.04;100.00
39075;BME280;24826;52.070;20.970;2023-03-13T13:13:16;61464.28;;;-147.04;100.00
39075;BME280;24826;52.070;20.970;2023-03-13T13:16:04;61482.19;;;-147.04;100.00
39075;BME280;24826;52.070;20.970;2023-03-13T13:18:51;61484.16;;;-147.04;100.00
39075;BME280;24826;52.070;20.970;2023-03-13T13:21:35;61486.16;;;-147.04;100.00
39075;BME280;24826;52.070;20.970;2023-03-13T13:24:48;61496.09;;;-147.04;100.00
39075;BME280;24826;52.070;20.970;2023-03-13T13:39:21;61436.44;;;-147.04;100.00
39075;BME280;24826;52.070;20.970;2023-03-13T13:42:37;61472.22;;;-147.04;100.00
39075;BME280;24826;52.070;20.970;2023-03-13T13:48:15;61448.38;;;-147.04;100.00
39075;BME280;24826;52.070;20.970;2023-03-13T13:57:07;61458.31;;;-147.04;100.00
39075;BME280;24826;52.070;20.970;2023-03-13T13:59:58;61416.56;;;-147.04;100.00
39075;BME280;24826;52.070;20.970;2023-03-13T14:05:38;61454.34;;;-147.04;100.00
39075;BME280;24826;52.070;20.970;2023-03-13T14:08:28;61480.19;;;-147.04;100.00
39075;BME280;24826;52.070;20.970;2023-03-13T14:14:17;61422.53;;;-147.04;100.00
39075;BME280;24826;52.070;20.970;2023-03-13T14:17:02;61416.56;;;-147.04;100.00
39075;BME280;24826;52.070;20.970;2023-03-13T14:19:48;61416.56;;;-147.04;100.00
39075;BME280;24826;52.070;20.970;2023-03-13T14:22:46;61440.41;;;-147.04;100.00
39075;BME280;24826;52.070;20.970;2023-03-13T14:26:08;61436.44;;;-147.04;100.00
39075;BME280;24826;52.070;20.970;2023-03-13T14:28:55;61420.53;;;-147.04;100.00
39075;BME280;24826;52.070;20.970;2023-03-13T14:31:49;61456.31;;;-147.04;100.00
39075;BME280;24826;52.070;20.970;2023-03-13T14:34:33;61426.50;;;-147.04;100.00
39075;BME280;24826;52.070;20.970;2023-03-13T14:37:34;61468.25;;;-147.04;100.00
39075;BME280;24826;52.070;20.970;2023-03-13T14:40:29;61452.34;;;-147.04;100.00
39075;BME280;24826;52.070;20.970;2023-03-13T14:43:35;61444.41;;;-147.04;100.00
39075;BME280;24826;52.070;20.970;2023-03-13T14:46:30;61456.31;;;-147.04;100.00
39075;BME280;24826;52.070;20.970;2023-03-13T14:49:20;61446.38;;;-147.04;100.00
39075;BME280;24826;52.070;20.970;2023-03-13T14:52:19;61468.25;;;-147.04;100.00
39075;BME280;24826;52.070;20.970;2023-03-13T14:55:33;61460.31;;;-147.04;100.00
39075;BME280;24826;52.070;20.970;2023-03-13T15:01:25;61456.31;;;-147.04;100.00
39075;BME280;24826;52.070;20.970;2023-03-13T15:04:09;61452.34;;;-147.04;100.00
39075;BME280;24826;52.070;20.970;2023-03-13T15:07:01;61603.47;;;-147.04;100.00
39075;BME280;24826;52.070;20.970;2023-03-13T15:09:47;61466.25;;;-147.04;100.00
39075;BME280;24826;52.070;20.970;2023-03-13T15:12:41;61458.31;;;-147.04;100.00
39075;BME280;24826;52.070;20.970;2023-03-13T15:15:25;61432.47;;;-147.04;100.00
39075;BME280;24826;52.070;20.970;2023-03-13T15:18:39;61448.38;;;-147.04;100.00
39075;BME280;24826;52.070;20.970;2023-03-13T15:21:32;61462.28;;;-147.04;100.00
39075;BME280;24826;52.070;20.970;2023-03-13T15:24:17;61456.31;;;-147.04;100.00
39075;BME280;24826;52.070;20.970;2023-03-13T15:27:01;61432.47;;;-147.04;100.00
39075;BME280;24826;52.070;20.970;2023-03-13T15:29:46;61452.34;;;-147.04;100.00